sensor_id;sensor_type;location;lat;lon;timestamp;P1;durP1;ratioP1;P2;durP2;ratioP2
12112;SDS011;6120;52.250;8.478;2023-08-30T00:01:01;8.02;;;4.75;;
12112;SDS011;6120;52.250;8.478;2023-08-30T00:03:28;7.95;;;5.15;;
12112;SDS011;6120;52.250;8.478;2023-08-30T00:05:54;7.75;;;5.00;;
12112;SDS011;6120;52.250;8.478;2023-08-30T00:08:21;6.72;;;4.50;;
12112;SDS011;6120;52.250;8.478;2023-08-30T00:10:48;8.52;;;5.00;;
12112;SDS011;6120;52.250;8.478;2023-08-30T00:13:15;7.80;;;5.35;;
12112;SDS011;6120;52.250;8.478;2023-08-30T00:15:42;9.02;;;5.88;;
12112;SDS011;6120;52.250;8.478;2023-08-30T00:18:08;8.98;;;6.00;;
12112;SDS011;6120;52.250;8.478;2023-08-30T00:20:36;8.82;;;6.68;;
12112;SDS011;6120;52.250;8.478;2023-08-30T00:23:03;7.45;;;6.22;;
12112;SDS011;6120;52.250;8.478;2023-08-30T00:25:31;8.65;;;5.80;;
12112;SDS011;6120;52.250;8.478;2023-08-30T00:27:57;9.65;;;7.05;;
12112;SDS011;6120;52.250;8.478;2023-08-30T00:30:24;9.38;;;6.05;;
12112;SDS011;6120;52.250;8.478;2023-08-30T00:32:51;8.15;;;5.65;;
12112;SDS011;6120;52.250;8.478;2023-08-30T00:35:17;9.63;;;6.72;;
12112;SDS011;6120;52.250;8.478;2023-08-30T00:37:44;8.35;;;6.22;;
12112;SDS011;6120;52.250;8.478;2023-08-30T00:40:11;7.60;;;5.63;;
12112;SDS011;6120;52.250;8.478;2023-08-30T00:42:37;9.27;;;6.50;;
12112;SDS011;6120;52.250;8.478;2023-08-30T00:45:07;10.20;;;7.07;;
12112;SDS011;6120;52.250;8.478;2023-08-30T00:47:34;7.75;;;5.63;;
12112;SDS011;6120;52.250;8.478;2023-08-30T00:50:01;9.65;;;5.75;;
12112;SDS011;6120;52.250;8.478;2023-08-30T00:52:28;10.50;;;6.53;;
12112;SDS011;6120;52.250;8.478;2023-08-30T00:54:54;8.35;;;6.13;;
12112;SDS011;6120;52.250;8.478;2023-08-30T00:57:21;10.27;;;6.25;;
12112;SDS011;6120;52.250;8.478;2023-08-30T00:59:48;9.32;;;6.15;;
12112;SDS011;6120;52.250;8.478;2023-08-30T01:02:17;10.48;;;6.57;;
12112;SDS011;6120;52.250;8.478;2023-08-30T01:04:45;8.55;;;6.20;;
12112;SDS011;6120;52.250;8.478;2023-08-30T01:07:12;9.02;;;6.47;;
12112;SDS011;6120;52.250;8.478;2023-08-30T01:09:38;8.63;;;6.30;;
12112;SDS011;6120;52.250;8.478;2023-08-30T01:14:40;9.55;;;6.07;;
12112;SDS011;6120;52.250;8.478;2023-08-30T01:17:12;10.70;;;6.15;;
12112;SDS011;6120;52.250;8.478;2023-08-30T01:25:00;11.15;;;7.85;;
12112;SDS011;6120;52.250;8.478;2023-08-30T01:27:31;11.80;;;7.78;;
12112;SDS011;6120;52.250;8.478;2023-08-30T01:30:01;10.85;;;7.00;;
12112;SDS011;6120;52.250;8.478;2023-08-30T01:32:28;10.75;;;7.35;;
12112;SDS011;6120;52.250;8.478;2023-08-30T01:34:56;9.80;;;7.32;;
12112;SDS011;6120;52.250;8.478;2023-08-30T01:37:24;10.00;;;7.03;;
12112;SDS011;6120;52.250;8.478;2023-08-30T01:39:52;8.63;;;6.65;;
12112;SDS011;6120;52.250;8.478;2023-08-30T01:42:19;9.82;;;7.07;;
12112;SDS011;6120;52.250;8.478;2023-08-30T01:44:49;10.50;;;7.70;;
12112;SDS011;6120;52.250;8.478;2023-08-30T01:47:17;12.23;;;7.82;;
12112;SDS011;6120;52.250;8.478;2023-08-30T01:49:44;10.88;;;7.00;;
12112;SDS011;6120;52.250;8.478;2023-08-30T01:52:11;12.82;;;8.65;;
12112;SDS011;6120;52.250;8.478;2023-08-30T01:54:39;11.23;;;7.60;;
12112;SDS011;6120;52.250;8.478;2023-08-30T01:57:07;11.40;;;8.48;;
12112;SDS011;6120;52.250;8.478;2023-08-30T01:59:33;12.45;;;9.10;;
12112;SDS011;6120;52.250;8.478;2023-08-30T02:02:00;10.30;;;7.80;;
12112;SDS011;6120;52.250;8.478;2023-08-30T02:04:27;13.98;;;9.18;;
12112;SDS011;6120;52.250;8.478;2023-08-30T02:06:55;12.55;;;7.32;;
12112;SDS011;6120;52.250;8.478;2023-08-30T02:09:26;11.52;;;7.95;;
12112;SDS011;6120;52.250;8.478;2023-08-30T02:11:54;12.48;;;8.65;;
12112;SDS011;6120;52.250;8.478;2023-08-30T02:14:22;10.00;;;7.67;;
12112;SDS011;6120;52.250;8.478;2023-08-30T02:16:49;11.47;;;7.93;;
12112;SDS011;6120;52.250;8.478;2023-08-30T02:19:17;10.95;;;8.48;;
12112;SDS011;6120;52.250;8.478;2023-08-30T02:21:47;10.68;;;7.72;;
12112;SDS011;6120;52.250;8.478;2023-08-30T02:24:14;12.55;;;9.00;;
12112;SDS011;6120;52.250;8.478;2023-08-30T02:26:41;12.32;;;9.05;;
12112;SDS011;6120;52.250;8.478;2023-08-30T02:29:07;11.15;;;8.32;;
12112;SDS011;6120;52.250;8.478;2023-08-30T02:31:34;13.60;;;9.50;;
12112;SDS011;6120;52.250;8.478;2023-08-30T02:34:01;12.40;;;8.45;;
12112;SDS011;6120;52.250;8.478;2023-08-30T02:36:28;11.38;;;7.70;;
12112;SDS011;6120;52.250;8.478;2023-08-30T02:38:55;9.75;;;7.20;;
12112;SDS011;6120;52.250;8.478;2023-08-30T02:41:21;10.75;;;7.53;;
12112;SDS011;6120;52.250;8.478;2023-08-30T02:43:48;12.45;;;7.47;;
12112;SDS011;6120;52.250;8.478;2023-08-30T02:46:15;12.90;;;8.73;;
12112;SDS011;6120;52.250;8.478;2023-08-30T02:48:41;11.50;;;7.85;;
12112;SDS011;6120;52.250;8.478;2023-08-30T02:51:08;10.77;;;8.40;;
12112;SDS011;6120;52.250;8.478;2023-08-30T02:53:35;11.77;;;8.48;;
12112;SDS011;6120;52.250;8.478;2023-08-30T02:56:01;12.55;;;8.55;;
12112;SDS011;6120;52.250;8.478;2023-08-30T02:58:28;11.30;;;7.57;;
12112;SDS011;6120;52.250;8.478;2023-08-30T03:00:59;11.27;;;8.20;;
12112;SDS011;6120;52.250;8.478;2023-08-30T03:03:26;12.82;;;8.95;;
12112;SDS011;6120;52.250;8.478;2023-08-30T03:05:53;11.93;;;8.65;;
12112;SDS011;6120;52.250;8.478;2023-08-30T03:08:19;11.30;;;8.60;;
12112;SDS011;6120;52.250;8.478;2023-08-30T03:10:46;11.38;;;8.80;;
12112;SDS011;6120;52.250;8.478;2023-08-30T03:13:13;12.52;;;8.65;;
12112;SDS011;6120;52.250;8.478;2023-08-30T03:15:39;12.50;;;9.45;;
12112;SDS011;6120;52.250;8.478;2023-08-30T03:18:06;12.02;;;8.23;;
12112;SDS011;6120;52.250;8.478;2023-08-30T03:20:33;11.82;;;8.40;;
12112;SDS011;6120;52.250;8.478;2023-08-30T03:23:00;10.57;;;7.78;;
12112;SDS011;6120;52.250;8.478;2023-08-30T03:25:30;11.95;;;8.18;;
12112;SDS011;6120;52.250;8.478;2023-08-30T03:27:56;12.68;;;8.45;;
12112;SDS011;6120;52.250;8.478;2023-08-30T03:30:23;13.13;;;9.05;;
12112;SDS011;6120;52.250;8.478;2023-08-30T03:32:50;13.98;;;9.23;;
12112;SDS011;6120;52.250;8.478;2023-08-30T03:35:16;11.15;;;8.40;;
12112;SDS011;6120;52.250;8.478;2023-08-30T03:37:43;12.45;;;8.50;;
12112;SDS011;6120;52.250;8.478;2023-08-30T03:40:10;13.90;;;9.60;;
12112;SDS011;6120;52.250;8.478;2023-08-30T03:42:38;11.57;;;8.40;;
12112;SDS011;6120;52.250;8.478;2023-08-30T03:45:05;13.95;;;8.63;;
12112;SDS011;6120;52.250;8.478;2023-08-30T03:47:32;12.85;;;8.63;;
12112;SDS011;6120;52.250;8.478;2023-08-30T03:49:59;12.52;;;8.35;;
12112;SDS011;6120;52.250;8.478;2023-08-30T03:52:26;10.93;;;8.00;;
12112;SDS011;6120;52.250;8.478;2023-08-30T03:54:52;10.70;;;7.97;;
12112;SDS011;6120;52.250;8.478;2023-08-30T03:57:19;10.80;;;7.25;;
12112;SDS011;6120;52.250;8.478;2023-08-30T03:59:46;9.50;;;7.35;;
12112;SDS011;6120;52.250;8.478;2023-08-30T04:02:12;11.77;;;8.10;;
12112;SDS011;6120;52.250;8.478;2023-08-30T04:04:39;12.02;;;7.40;;
12112;SDS011;6120;52.250;8.478;2023-08-30T04:07:06;11.75;;;8.35;;
12112;SDS011;6120;52.250;8.478;2023-08-30T04:09:32;12.32;;;7.72;;
12112;SDS011;6120;52.250;8.478;2023-08-30T04:11:59;16.65;;;9.30;;
12112;SDS011;6120;52.250;8.478;2023-08-30T04:14:26;12.45;;;9.05;;
12112;SDS011;6120;52.250;8.478;2023-08-30T04:16:53;12.63;;;8.32;;
12112;SDS011;6120;52.250;8.478;2023-08-30T04:19:20;10.50;;;7.97;;
12112;SDS011;6120;52.250;8.478;2023-08-30T04:21:46;12.85;;;8.85;;
12112;SDS011;6120;52.250;8.478;2023-08-30T04:24:14;16.73;;;8.73;;
12112;SDS011;6120;52.250;8.478;2023-08-30T04:26:41;13.40;;;9.15;;
12112;SDS011;6120;52.250;8.478;2023-08-30T04:29:08;14.70;;;10.18;;
12112;SDS011;6120;52.250;8.478;2023-08-30T04:31:35;13.18;;;9.50;;
12112;SDS011;6120;52.250;8.478;2023-08-30T04:34:02;12.73;;;8.45;;
12112;SDS011;6120;52.250;8.478;2023-08-30T04:36:28;13.23;;;8.85;;
12112;SDS011;6120;52.250;8.478;2023-08-30T04:38:55;15.10;;;9.27;;
12112;SDS011;6120;52.250;8.478;2023-08-30T04:41:28;12.65;;;9.27;;
12112;SDS011;6120;52.250;8.478;2023-08-30T04:43:55;13.93;;;9.75;;
12112;SDS011;6120;52.250;8.478;2023-08-30T04:46:21;11.23;;;8.82;;
12112;SDS011;6120;52.250;8.478;2023-08-30T04:48:48;13.35;;;9.18;;
12112;SDS011;6120;52.250;8.478;2023-08-30T04:51:15;12.93;;;8.95;;
12112;SDS011;6120;52.250;8.478;2023-08-30T04:53:41;12.57;;;8.55;;
12112;SDS011;6120;52.250;8.478;2023-08-30T04:56:10;13.13;;;8.85;;
12112;SDS011;6120;52.250;8.478;2023-08-30T04:58:39;15.18;;;9.57;;
12112;SDS011;6120;52.250;8.478;2023-08-30T05:01:06;12.35;;;8.77;;
12112;SDS011;6120;52.250;8.478;2023-08-30T05:03:33;18.42;;;9.88;;
12112;SDS011;6120;52.250;8.478;2023-08-30T05:06:00;11.98;;;8.13;;
12112;SDS011;6120;52.250;8.478;2023-08-30T05:08:27;10.55;;;7.28;;
12112;SDS011;6120;52.250;8.478;2023-08-30T05:10:56;13.05;;;8.30;;
12112;SDS011;6120;52.250;8.478;2023-08-30T05:13:23;12.63;;;8.98;;
12112;SDS011;6120;52.250;8.478;2023-08-30T05:15:50;11.30;;;8.35;;
12112;SDS011;6120;52.250;8.478;2023-08-30T05:18:18;11.93;;;8.93;;
12112;SDS011;6120;52.250;8.478;2023-08-30T05:20:45;11.75;;;8.25;;
12112;SDS011;6120;52.250;8.478;2023-08-30T05:23:12;11.55;;;8.27;;
12112;SDS011;6120;52.250;8.478;2023-08-30T05:25:38;10.98;;;8.23;;
12112;SDS011;6120;52.250;8.478;2023-08-30T05:28:05;11.65;;;7.65;;
12112;SDS011;6120;52.250;8.478;2023-08-30T05:30:32;13.38;;;9.10;;
12112;SDS011;6120;52.250;8.478;2023-08-30T05:32:59;15.68;;;9.85;;
12112;SDS011;6120;52.250;8.478;2023-08-30T05:35:26;14.15;;;9.27;;
12112;SDS011;6120;52.250;8.478;2023-08-30T05:37:52;13.30;;;8.55;;
12112;SDS011;6120;52.250;8.478;2023-08-30T05:40:19;13.30;;;9.13;;
12112;SDS011;6120;52.250;8.478;2023-08-30T05:42:46;14.52;;;9.00;;
12112;SDS011;6120;52.250;8.478;2023-08-30T05:45:12;11.73;;;8.63;;
12112;SDS011;6120;52.250;8.478;2023-08-30T05:47:39;11.68;;;8.40;;
12112;SDS011;6120;52.250;8.478;2023-08-30T05:50:06;11.55;;;8.02;;
12112;SDS011;6120;52.250;8.478;2023-08-30T05:52:33;12.63;;;8.20;;
12112;SDS011;6120;52.250;8.478;2023-08-30T05:55:00;12.88;;;8.93;;
12112;SDS011;6120;52.250;8.478;2023-08-30T05:57:26;12.77;;;8.18;;
12112;SDS011;6120;52.250;8.478;2023-08-30T06:02:21;14.07;;;8.88;;
12112;SDS011;6120;52.250;8.478;2023-08-30T06:04:48;11.50;;;8.40;;
12112;SDS011;6120;52.250;8.478;2023-08-30T06:07:14;11.38;;;8.05;;
12112;SDS011;6120;52.250;8.478;2023-08-30T06:09:41;15.95;;;9.65;;
12112;SDS011;6120;52.250;8.478;2023-08-30T06:12:08;12.45;;;8.40;;
12112;SDS011;6120;52.250;8.478;2023-08-30T06:14:35;14.02;;;8.70;;
12112;SDS011;6120;52.250;8.478;2023-08-30T06:17:01;14.55;;;8.50;;
12112;SDS011;6120;52.250;8.478;2023-08-30T06:19:28;12.30;;;8.38;;
12112;SDS011;6120;52.250;8.478;2023-08-30T06:21:55;9.98;;;7.13;;
12112;SDS011;6120;52.250;8.478;2023-08-30T06:24:21;14.65;;;8.48;;
12112;SDS011;6120;52.250;8.478;2023-08-30T06:26:48;11.30;;;7.65;;
12112;SDS011;6120;52.250;8.478;2023-08-30T06:29:15;11.68;;;8.35;;
12112;SDS011;6120;52.250;8.478;2023-08-30T06:31:41;12.95;;;8.95;;
12112;SDS011;6120;52.250;8.478;2023-08-30T06:34:08;11.15;;;8.38;;
12112;SDS011;6120;52.250;8.478;2023-08-30T06:36:35;12.10;;;8.20;;
12112;SDS011;6120;52.250;8.478;2023-08-30T06:39:02;12.27;;;7.68;;
12112;SDS011;6120;52.250;8.478;2023-08-30T06:41:29;12.85;;;7.97;;
12112;SDS011;6120;52.250;8.478;2023-08-30T06:43:55;14.32;;;8.68;;
12112;SDS011;6120;52.250;8.478;2023-08-30T06:46:23;11.10;;;7.93;;
12112;SDS011;6120;52.250;8.478;2023-08-30T06:48:50;12.13;;;8.30;;
12112;SDS011;6120;52.250;8.478;2023-08-30T06:51:16;13.48;;;8.25;;
12112;SDS011;6120;52.250;8.478;2023-08-30T06:53:43;12.15;;;8.82;;
12112;SDS011;6120;52.250;8.478;2023-08-30T06:56:10;13.48;;;8.95;;
12112;SDS011;6120;52.250;8.478;2023-08-30T06:58:37;13.38;;;8.85;;
12112;SDS011;6120;52.250;8.478;2023-08-30T07:01:03;12.75;;;8.88;;
12112;SDS011;6120;52.250;8.478;2023-08-30T07:03:30;10.30;;;7.50;;
12112;SDS011;6120;52.250;8.478;2023-08-30T07:05:57;13.57;;;9.43;;
12112;SDS011;6120;52.250;8.478;2023-08-30T07:08:24;11.95;;;7.97;;
12112;SDS011;6120;52.250;8.478;2023-08-30T07:10:51;13.23;;;8.85;;
12112;SDS011;6120;52.250;8.478;2023-08-30T07:13:18;14.65;;;8.80;;
12112;SDS011;6120;52.250;8.478;2023-08-30T07:15:44;15.65;;;9.70;;
12112;SDS011;6120;52.250;8.478;2023-08-30T07:18:12;16.85;;;8.30;;
12112;SDS011;6120;52.250;8.478;2023-08-30T07:20:39;12.93;;;8.65;;
12112;SDS011;6120;52.250;8.478;2023-08-30T07:23:06;15.88;;;8.98;;
12112;SDS011;6120;52.250;8.478;2023-08-30T07:25:36;14.40;;;8.95;;
12112;SDS011;6120;52.250;8.478;2023-08-30T07:28:03;12.85;;;9.35;;
12112;SDS011;6120;52.250;8.478;2023-08-30T07:30:31;14.20;;;10.00;;
12112;SDS011;6120;52.250;8.478;2023-08-30T07:32:58;15.50;;;10.75;;
12112;SDS011;6120;52.250;8.478;2023-08-30T07:35:25;13.02;;;9.27;;
12112;SDS011;6120;52.250;8.478;2023-08-30T07:37:52;15.55;;;10.30;;
12112;SDS011;6120;52.250;8.478;2023-08-30T07:40:19;15.85;;;9.80;;
12112;SDS011;6120;52.250;8.478;2023-08-30T07:42:47;15.05;;;10.00;;
12112;SDS011;6120;52.250;8.478;2023-08-30T07:45:13;15.00;;;9.60;;
12112;SDS011;6120;52.250;8.478;2023-08-30T07:47:40;16.42;;;9.65;;
12112;SDS011;6120;52.250;8.478;2023-08-30T07:50:07;16.65;;;11.10;;
12112;SDS011;6120;52.250;8.478;2023-08-30T07:52:34;16.13;;;10.65;;
12112;SDS011;6120;52.250;8.478;2023-08-30T07:55:11;17.58;;;10.98;;
12112;SDS011;6120;52.250;8.478;2023-08-30T07:57:38;15.77;;;10.25;;
12112;SDS011;6120;52.250;8.478;2023-08-30T08:00:05;17.08;;;9.63;;
12112;SDS011;6120;52.250;8.478;2023-08-30T08:02:32;19.73;;;10.27;;
12112;SDS011;6120;52.250;8.478;2023-08-30T08:04:59;14.15;;;9.73;;
12112;SDS011;6120;52.250;8.478;2023-08-30T08:07:26;14.75;;;9.32;;
12112;SDS011;6120;52.250;8.478;2023-08-30T08:09:54;14.85;;;9.88;;
12112;SDS011;6120;52.250;8.478;2023-08-30T08:12:21;13.02;;;9.05;;
12112;SDS011;6120;52.250;8.478;2023-08-30T08:14:48;15.63;;;8.20;;
12112;SDS011;6120;52.250;8.478;2023-08-30T08:17:15;14.18;;;8.35;;
12112;SDS011;6120;52.250;8.478;2023-08-30T08:19:41;14.40;;;8.70;;
12112;SDS011;6120;52.250;8.478;2023-08-30T08:24:36;14.98;;;8.25;;
12112;SDS011;6120;52.250;8.478;2023-08-30T08:27:03;11.13;;;7.00;;
12112;SDS011;6120;52.250;8.478;2023-08-30T08:29:31;10.60;;;6.72;;
12112;SDS011;6120;52.250;8.478;2023-08-30T08:31:58;9.52;;;6.18;;
12112;SDS011;6120;52.250;8.478;2023-08-30T08:34:25;11.88;;;7.13;;
12112;SDS011;6120;52.250;8.478;2023-08-30T08:36:51;11.90;;;7.78;;
12112;SDS011;6120;52.250;8.478;2023-08-30T08:39:18;9.55;;;6.15;;
12112;SDS011;6120;52.250;8.478;2023-08-30T08:41:45;10.77;;;7.15;;
12112;SDS011;6120;52.250;8.478;2023-08-30T08:44:12;13.27;;;7.95;;
12112;SDS011;6120;52.250;8.478;2023-08-30T08:46:39;11.93;;;7.57;;
12112;SDS011;6120;52.250;8.478;2023-08-30T08:49:16;11.23;;;7.07;;
12112;SDS011;6120;52.250;8.478;2023-08-30T08:51:43;13.63;;;7.75;;
12112;SDS011;6120;52.250;8.478;2023-08-30T08:56:38;10.93;;;7.32;;
12112;SDS011;6120;52.250;8.478;2023-08-30T08:59:05;11.38;;;6.85;;
12112;SDS011;6120;52.250;8.478;2023-08-30T09:01:35;12.23;;;6.90;;
12112;SDS011;6120;52.250;8.478;2023-08-30T09:04:08;16.52;;;8.70;;
12112;SDS011;6120;52.250;8.478;2023-08-30T09:06:36;16.48;;;8.00;;
12112;SDS011;6120;52.250;8.478;2023-08-30T09:09:04;12.50;;;6.60;;
12112;SDS011;6120;52.250;8.478;2023-08-30T09:11:31;11.38;;;7.13;;
12112;SDS011;6120;52.250;8.478;2023-08-30T09:14:01;16.48;;;9.98;;
12112;SDS011;6120;52.250;8.478;2023-08-30T09:16:28;13.43;;;8.43;;
12112;SDS011;6120;52.250;8.478;2023-08-30T09:19:00;14.27;;;8.88;;
12112;SDS011;6120;52.250;8.478;2023-08-30T09:21:36;14.23;;;8.35;;
12112;SDS011;6120;52.250;8.478;2023-08-30T09:24:03;14.18;;;7.95;;
12112;SDS011;6120;52.250;8.478;2023-08-30T09:29:02;12.93;;;8.45;;
12112;SDS011;6120;52.250;8.478;2023-08-30T09:31:33;14.80;;;7.55;;
12112;SDS011;6120;52.250;8.478;2023-08-30T09:34:03;18.30;;;10.20;;
12112;SDS011;6120;52.250;8.478;2023-08-30T09:36:37;17.20;;;9.65;;
12112;SDS011;6120;52.250;8.478;2023-08-30T09:39:05;14.20;;;8.65;;
12112;SDS011;6120;52.250;8.478;2023-08-30T09:41:32;13.10;;;7.93;;
12112;SDS011;6120;52.250;8.478;2023-08-30T09:44:00;15.35;;;7.72;;
12112;SDS011;6120;52.250;8.478;2023-08-30T09:46:43;16.50;;;9.52;;
12112;SDS011;6120;52.250;8.478;2023-08-30T09:49:18;15.60;;;8.63;;
12112;SDS011;6120;52.250;8.478;2023-08-30T09:51:48;17.00;;;8.93;;
12112;SDS011;6120;52.250;8.478;2023-08-30T09:54:17;15.27;;;7.75;;
12112;SDS011;6120;52.250;8.478;2023-08-30T09:57:05;11.85;;;6.75;;
12112;SDS011;6120;52.250;8.478;2023-08-30T09:59:32;13.40;;;7.25;;
12112;SDS011;6120;52.250;8.478;2023-08-30T10:01:59;15.25;;;8.82;;
12112;SDS011;6120;52.250;8.478;2023-08-30T10:04:27;14.65;;;7.93;;
12112;SDS011;6120;52.250;8.478;2023-08-30T10:06:54;11.02;;;7.07;;
12112;SDS011;6120;52.250;8.478;2023-08-30T10:09:23;11.48;;;6.88;;
12112;SDS011;6120;52.250;8.478;2023-08-30T10:11:52;12.63;;;6.82;;
12112;SDS011;6120;52.250;8.478;2023-08-30T10:14:19;11.55;;;6.82;;
12112;SDS011;6120;52.250;8.478;2023-08-30T10:16:46;11.75;;;7.30;;
12112;SDS011;6120;52.250;8.478;2023-08-30T10:21:45;11.65;;;6.50;;
12112;SDS011;6120;52.250;8.478;2023-08-30T10:24:15;14.43;;;7.32;;
12112;SDS011;6120;52.250;8.478;2023-08-30T10:27:00;14.98;;;8.23;;
12112;SDS011;6120;52.250;8.478;2023-08-30T10:29:28;10.75;;;6.05;;
12112;SDS011;6120;52.250;8.478;2023-08-30T10:31:56;12.30;;;7.50;;
12112;SDS011;6120;52.250;8.478;2023-08-30T10:34:22;10.57;;;6.38;;
12112;SDS011;6120;52.250;8.478;2023-08-30T10:36:58;12.40;;;7.47;;
12112;SDS011;6120;52.250;8.478;2023-08-30T10:39:33;10.68;;;6.72;;
12112;SDS011;6120;52.250;8.478;2023-08-30T10:42:06;10.10;;;5.97;;
12112;SDS011;6120;52.250;8.478;2023-08-30T10:44:35;17.40;;;7.05;;
12112;SDS011;6120;52.250;8.478;2023-08-30T10:47:24;13.95;;;7.00;;
12112;SDS011;6120;52.250;8.478;2023-08-30T10:49:53;9.60;;;5.97;;
12112;SDS011;6120;52.250;8.478;2023-08-30T10:52:23;12.82;;;6.82;;
12112;SDS011;6120;52.250;8.478;2023-08-30T10:54:50;10.60;;;6.50;;
12112;SDS011;6120;52.250;8.478;2023-08-30T10:57:24;8.95;;;5.40;;
12112;SDS011;6120;52.250;8.478;2023-08-30T11:00:07;7.75;;;4.90;;
12112;SDS011;6120;52.250;8.478;2023-08-30T11:02:37;9.43;;;4.95;;
12112;SDS011;6120;52.250;8.478;2023-08-30T11:05:08;10.75;;;6.32;;
12112;SDS011;6120;52.250;8.478;2023-08-30T11:07:35;9.40;;;5.15;;
12112;SDS011;6120;52.250;8.478;2023-08-30T11:10:05;8.20;;;4.07;;
12112;SDS011;6120;52.250;8.478;2023-08-30T11:12:35;8.30;;;4.20;;
12112;SDS011;6120;52.250;8.478;2023-08-30T11:15:02;7.30;;;4.50;;
12112;SDS011;6120;52.250;8.478;2023-08-30T11:17:29;7.60;;;4.43;;
12112;SDS011;6120;52.250;8.478;2023-08-30T11:20:12;9.05;;;4.30;;
12112;SDS011;6120;52.250;8.478;2023-08-30T11:22:43;7.22;;;4.28;;
12112;SDS011;6120;52.250;8.478;2023-08-30T11:25:11;10.02;;;5.10;;
12112;SDS011;6120;52.250;8.478;2023-08-30T11:27:39;7.15;;;4.72;;
12112;SDS011;6120;52.250;8.478;2023-08-30T11:30:07;9.60;;;4.45;;
12112;SDS011;6120;52.250;8.478;2023-08-30T11:35:02;7.22;;;4.38;;
12112;SDS011;6120;52.250;8.478;2023-08-30T11:37:29;6.72;;;3.65;;
12112;SDS011;6120;52.250;8.478;2023-08-30T11:39:57;8.23;;;3.38;;
12112;SDS011;6120;52.250;8.478;2023-08-30T11:42:25;6.68;;;3.83;;
12112;SDS011;6120;52.250;8.478;2023-08-30T11:44:52;6.32;;;3.70;;
12112;SDS011;6120;52.250;8.478;2023-08-30T11:47:19;7.88;;;4.25;;
12112;SDS011;6120;52.250;8.478;2023-08-30T11:49:48;6.63;;;3.45;;
12112;SDS011;6120;52.250;8.478;2023-08-30T11:52:16;6.45;;;3.20;;
12112;SDS011;6120;52.250;8.478;2023-08-30T11:54:44;6.43;;;3.85;;
12112;SDS011;6120;52.250;8.478;2023-08-30T11:57:12;8.85;;;4.38;;
12112;SDS011;6120;52.250;8.478;2023-08-30T11:59:38;7.47;;;4.18;;
12112;SDS011;6120;52.250;8.478;2023-08-30T12:02:08;12.85;;;4.90;;
12112;SDS011;6120;52.250;8.478;2023-08-30T12:04:42;6.57;;;4.20;;
12112;SDS011;6120;52.250;8.478;2023-08-30T12:07:10;8.25;;;3.65;;
12112;SDS011;6120;52.250;8.478;2023-08-30T12:09:39;6.20;;;3.30;;
12112;SDS011;6120;52.250;8.478;2023-08-30T12:12:09;6.03;;;3.70;;
12112;SDS011;6120;52.250;8.478;2023-08-30T12:14:37;5.97;;;3.20;;
12112;SDS011;6120;52.250;8.478;2023-08-30T12:17:04;5.88;;;3.15;;
12112;SDS011;6120;52.250;8.478;2023-08-30T12:19:32;6.85;;;3.80;;
12112;SDS011;6120;52.250;8.478;2023-08-30T12:22:03;6.18;;;3.60;;
12112;SDS011;6120;52.250;8.478;2023-08-30T12:24:41;8.30;;;3.35;;
12112;SDS011;6120;52.250;8.478;2023-08-30T12:27:08;7.32;;;3.38;;
12112;SDS011;6120;52.250;8.478;2023-08-30T12:29:35;8.48;;;5.05;;
12112;SDS011;6120;52.250;8.478;2023-08-30T12:32:02;7.57;;;3.63;;
12112;SDS011;6120;52.250;8.478;2023-08-30T12:34:29;7.53;;;3.70;;
12112;SDS011;6120;52.250;8.478;2023-08-30T12:36:56;6.45;;;3.85;;
12112;SDS011;6120;52.250;8.478;2023-08-30T12:39:23;6.38;;;4.03;;
12112;SDS011;6120;52.250;8.478;2023-08-30T12:41:49;6.47;;;3.60;;
12112;SDS011;6120;52.250;8.478;2023-08-30T12:44:16;8.07;;;4.18;;
12112;SDS011;6120;52.250;8.478;2023-08-30T12:46:43;8.32;;;3.45;;
12112;SDS011;6120;52.250;8.478;2023-08-30T12:49:10;7.47;;;3.65;;
12112;SDS011;6120;52.250;8.478;2023-08-30T12:51:37;6.03;;;3.20;;
12112;SDS011;6120;52.250;8.478;2023-08-30T12:54:04;7.97;;;4.32;;
12112;SDS011;6120;52.250;8.478;2023-08-30T12:56:31;11.18;;;6.13;;
12112;SDS011;6120;52.250;8.478;2023-08-30T12:58:57;12.35;;;6.63;;
12112;SDS011;6120;52.250;8.478;2023-08-30T13:01:24;12.57;;;7.40;;
12112;SDS011;6120;52.250;8.478;2023-08-30T13:03:51;11.30;;;7.57;;
12112;SDS011;6120;52.250;8.478;2023-08-30T13:06:17;11.63;;;7.68;;
12112;SDS011;6120;52.250;8.478;2023-08-30T13:08:44;12.15;;;7.82;;
12112;SDS011;6120;52.250;8.478;2023-08-30T13:11:11;13.57;;;9.30;;
12112;SDS011;6120;52.250;8.478;2023-08-30T13:13:37;12.27;;;8.52;;
12112;SDS011;6120;52.250;8.478;2023-08-30T13:16:04;11.85;;;8.57;;
12112;SDS011;6120;52.250;8.478;2023-08-30T13:18:30;13.32;;;9.40;;
12112;SDS011;6120;52.250;8.478;2023-08-30T13:20:57;13.55;;;10.18;;
12112;SDS011;6120;52.250;8.478;2023-08-30T13:23:24;17.88;;;11.77;;
12112;SDS011;6120;52.250;8.478;2023-08-30T13:25:50;17.45;;;11.80;;
12112;SDS011;6120;52.250;8.478;2023-08-30T13:28:17;16.48;;;11.57;;
12112;SDS011;6120;52.250;8.478;2023-08-30T13:30:44;17.15;;;11.55;;
12112;SDS011;6120;52.250;8.478;2023-08-30T13:33:11;17.73;;;12.03;;
12112;SDS011;6120;52.250;8.478;2023-08-30T13:35:39;17.42;;;12.07;;
12112;SDS011;6120;52.250;8.478;2023-08-30T13:38:06;19.30;;;13.75;;
12112;SDS011;6120;52.250;8.478;2023-08-30T13:40:33;20.67;;;13.20;;
12112;SDS011;6120;52.250;8.478;2023-08-30T13:42:59;20.98;;;13.63;;
12112;SDS011;6120;52.250;8.478;2023-08-30T13:45:26;21.08;;;13.63;;
12112;SDS011;6120;52.250;8.478;2023-08-30T13:47:53;18.35;;;13.38;;
12112;SDS011;6120;52.250;8.478;2023-08-30T13:50:21;20.65;;;13.98;;
12112;SDS011;6120;52.250;8.478;2023-08-30T13:52:48;21.73;;;14.32;;
12112;SDS011;6120;52.250;8.478;2023-08-30T13:55:15;19.33;;;13.18;;
12112;SDS011;6120;52.250;8.478;2023-08-30T13:57:41;17.73;;;12.38;;
12112;SDS011;6120;52.250;8.478;2023-08-30T14:00:08;18.92;;;12.82;;
12112;SDS011;6120;52.250;8.478;2023-08-30T14:02:36;14.60;;;12.02;;
12112;SDS011;6120;52.250;8.478;2023-08-30T14:05:03;13.75;;;10.65;;
12112;SDS011;6120;52.250;8.478;2023-08-30T14:07:30;15.23;;;10.65;;
12112;SDS011;6120;52.250;8.478;2023-08-30T14:09:57;13.30;;;10.50;;
12112;SDS011;6120;52.250;8.478;2023-08-30T14:12:24;14.40;;;10.23;;
12112;SDS011;6120;52.250;8.478;2023-08-30T14:14:50;14.85;;;10.25;;
12112;SDS011;6120;52.250;8.478;2023-08-30T14:17:19;11.45;;;8.85;;
12112;SDS011;6120;52.250;8.478;2023-08-30T14:19:48;11.55;;;8.18;;
12112;SDS011;6120;52.250;8.478;2023-08-30T14:22:15;11.27;;;8.10;;
12112;SDS011;6120;52.250;8.478;2023-08-30T14:24:42;11.18;;;7.80;;
12112;SDS011;6120;52.250;8.478;2023-08-30T14:27:28;9.43;;;7.80;;
12112;SDS011;6120;52.250;8.478;2023-08-30T14:29:55;10.10;;;7.60;;
12112;SDS011;6120;52.250;8.478;2023-08-30T14:32:21;11.52;;;8.27;;
12112;SDS011;6120;52.250;8.478;2023-08-30T14:34:48;10.23;;;7.35;;
12112;SDS011;6120;52.250;8.478;2023-08-30T14:37:15;9.80;;;7.68;;
12112;SDS011;6120;52.250;8.478;2023-08-30T14:39:41;9.80;;;6.78;;
12112;SDS011;6120;52.250;8.478;2023-08-30T14:42:08;8.82;;;6.32;;
12112;SDS011;6120;52.250;8.478;2023-08-30T14:44:35;9.55;;;6.75;;
12112;SDS011;6120;52.250;8.478;2023-08-30T14:47:01;10.48;;;7.18;;
12112;SDS011;6120;52.250;8.478;2023-08-30T14:49:29;8.30;;;6.40;;
12112;SDS011;6120;52.250;8.478;2023-08-30T14:51:57;9.52;;;6.60;;
12112;SDS011;6120;52.250;8.478;2023-08-30T14:54:24;10.80;;;7.35;;
12112;SDS011;6120;52.250;8.478;2023-08-30T14:56:51;9.65;;;7.10;;
12112;SDS011;6120;52.250;8.478;2023-08-30T14:59:18;11.05;;;7.15;;
12112;SDS011;6120;52.250;8.478;2023-08-30T15:01:44;8.75;;;6.45;;
12112;SDS011;6120;52.250;8.478;2023-08-30T15:04:11;9.43;;;7.72;;
12112;SDS011;6120;52.250;8.478;2023-08-30T15:06:38;10.52;;;7.28;;
12112;SDS011;6120;52.250;8.478;2023-08-30T15:09:08;10.70;;;8.13;;
12112;SDS011;6120;52.250;8.478;2023-08-30T15:11:35;10.00;;;7.22;;
12112;SDS011;6120;52.250;8.478;2023-08-30T15:14:02;13.23;;;8.40;;
12112;SDS011;6120;52.250;8.478;2023-08-30T15:16:29;9.73;;;6.95;;